sensor_id;sensor_type;location;lat;lon;timestamp;P1;durP1;ratioP1;P2;durP2;ratioP2
66127;SDS011;52925;52.436;-1.952;2023-12-14T05:44:16;3.40;;;1.60;;
66127;SDS011;52925;52.436;-1.952;2023-12-14T06:05:15;5.90;;;2.13;;
66127;SDS011;52925;52.436;-1.952;2023-12-14T06:06:37;4.88;;;2.00;;
66127;SDS011;52925;52.436;-1.952;2023-12-14T06:07:57;5.13;;;1.77;;
66127;SDS011;52925;52.436;-1.952;2023-12-14T06:09:19;4.53;;;1.77;;
66127;SDS011;52925;52.436;-1.952;2023-12-14T06:10:43;4.20;;;1.90;;
66127;SDS011;52925;52.436;-1.952;2023-12-14T06:12:05;2.70;;;1.52;;
66127;SDS011;52925;52.436;-1.952;2023-12-14T06:13:25;5.15;;;1.85;;
66127;SDS011;52925;52.436;-1.952;2023-12-14T06:14:46;3.97;;;1.85;;
66127;SDS011;52925;52.436;-1.952;2023-12-14T06:16:07;2.50;;;1.70;;
66127;SDS011;52925;52.436;-1.952;2023-12-14T06:17:31;4.25;;;1.65;;
66127;SDS011;52925;52.436;-1.952;2023-12-14T06:18:52;3.65;;;1.63;;
66127;SDS011;52925;52.436;-1.952;2023-12-14T06:20:15;3.17;;;1.70;;
66127;SDS011;52925;52.436;-1.952;2023-12-14T06:21:36;5.00;;;1.80;;
66127;SDS011;52925;52.436;-1.952;2023-12-14T06:22:57;3.70;;;1.70;;
66127;SDS011;52925;52.436;-1.952;2023-12-14T06:24:17;2.38;;;1.50;;
66127;SDS011;52925;52.436;-1.952;2023-12-14T06:25:40;4.18;;;1.60;;
66127;SDS011;52925;52.436;-1.952;2023-12-14T06:27:00;4.20;;;1.63;;
66127;SDS011;52925;52.436;-1.952;2023-12-14T06:28:22;5.03;;;2.00;;
66127;SDS011;52925;52.436;-1.952;2023-12-14T06:29:42;3.65;;;1.80;;
66127;SDS011;52925;52.436;-1.952;2023-12-14T06:31:03;3.38;;;1.75;;
66127;SDS011;52925;52.436;-1.952;2023-12-14T06:32:23;5.57;;;1.80;;
66127;SDS011;52925;52.436;-1.952;2023-12-14T06:33:44;2.97;;;1.70;;
66127;SDS011;52925;52.436;-1.952;2023-12-14T06:35:05;4.03;;;1.60;;
66127;SDS011;52925;52.436;-1.952;2023-12-14T06:36:28;3.53;;;1.52;;
66127;SDS011;52925;52.436;-1.952;2023-12-14T06:37:48;3.97;;;1.63;;
66127;SDS011;52925;52.436;-1.952;2023-12-14T06:39:09;3.92;;;1.83;;
66127;SDS011;52925;52.436;-1.952;2023-12-14T06:40:29;5.28;;;1.73;;
66127;SDS011;52925;52.436;-1.952;2023-12-14T06:41:51;5.22;;;2.00;;
66127;SDS011;52925;52.436;-1.952;2023-12-14T07:03:55;3.42;;;1.63;;
66127;SDS011;52925;52.436;-1.952;2023-12-14T07:05:16;5.13;;;1.58;;
66127;SDS011;52925;52.436;-1.952;2023-12-14T07:06:36;3.67;;;1.60;;
66127;SDS011;52925;52.436;-1.952;2023-12-14T07:07:57;3.75;;;1.48;;
66127;SDS011;52925;52.436;-1.952;2023-12-14T07:09:18;4.68;;;1.80;;
66127;SDS011;52925;52.436;-1.952;2023-12-14T07:10:40;2.17;;;1.30;;
66127;SDS011;52925;52.436;-1.952;2023-12-14T07:12:00;3.33;;;1.45;;
66127;SDS011;52925;52.436;-1.952;2023-12-14T07:13:21;2.08;;;1.33;;
66127;SDS011;52925;52.436;-1.952;2023-12-14T07:14:41;3.13;;;1.67;;
66127;SDS011;52925;52.436;-1.952;2023-12-14T07:16:05;3.55;;;1.70;;
66127;SDS011;52925;52.436;-1.952;2023-12-14T07:17:26;3.35;;;1.77;;
66127;SDS011;52925;52.436;-1.952;2023-12-14T16:52:52;7.80;;;3.97;;
66127;SDS011;52925;52.436;-1.952;2023-12-14T16:55:05;7.72;;;3.88;;
66127;SDS011;52925;52.436;-1.952;2023-12-14T16:56:29;7.55;;;3.92;;
66127;SDS011;52925;52.436;-1.952;2023-12-14T16:57:50;7.97;;;3.83;;
66127;SDS011;52925;52.436;-1.952;2023-12-14T16:59:13;5.50;;;3.50;;
66127;SDS011;52925;52.436;-1.952;2023-12-14T17:00:34;9.05;;;3.85;;
66127;SDS011;52925;52.436;-1.952;2023-12-14T17:01:55;7.45;;;3.88;;
66127;SDS011;52925;52.436;-1.952;2023-12-14T17:05:16;7.70;;;4.00;;
66127;SDS011;52925;52.436;-1.952;2023-12-14T17:06:36;5.60;;;3.55;;
66127;SDS011;52925;52.436;-1.952;2023-12-14T17:07:59;8.63;;;3.72;;
66127;SDS011;52925;52.436;-1.952;2023-12-14T17:09:18;10.18;;;4.32;;
66127;SDS011;52925;52.436;-1.952;2023-12-14T17:10:41;9.23;;;3.70;;
66127;SDS011;52925;52.436;-1.952;2023-12-14T17:12:00;10.23;;;4.40;;
66127;SDS011;52925;52.436;-1.952;2023-12-14T17:13:22;9.10;;;4.45;;
66127;SDS011;52925;52.436;-1.952;2023-12-14T17:14:42;10.02;;;4.45;;
66127;SDS011;52925;52.436;-1.952;2023-12-14T17:16:10;6.97;;;4.15;;
66127;SDS011;52925;52.436;-1.952;2023-12-14T17:17:30;10.25;;;4.03;;
66127;SDS011;52925;52.436;-1.952;2023-12-14T17:18:53;9.15;;;3.80;;
66127;SDS011;52925;52.436;-1.952;2023-12-14T17:20:13;9.65;;;4.28;;
66127;SDS011;52925;52.436;-1.952;2023-12-14T17:21:34;8.00;;;3.65;;
66127;SDS011;52925;52.436;-1.952;2023-12-14T17:22:54;19.13;;;5.18;;
66127;SDS011;52925;52.436;-1.952;2023-12-14T17:24:16;17.02;;;3.90;;
66127;SDS011;52925;52.436;-1.952;2023-12-14T17:25:36;15.23;;;4.47;;
66127;SDS011;52925;52.436;-1.952;2023-12-14T17:27:16;13.38;;;4.30;;
66127;SDS011;52925;52.436;-1.952;2023-12-14T17:28:48;19.10;;;4.82;;
66127;SDS011;52925;52.436;-1.952;2023-12-14T17:30:09;15.27;;;4.15;;
66127;SDS011;52925;52.436;-1.952;2023-12-14T17:31:33;14.07;;;4.35;;
66127;SDS011;52925;52.436;-1.952;2023-12-14T17:32:53;14.55;;;4.25;;
66127;SDS011;52925;52.436;-1.952;2023-12-14T17:34:14;14.48;;;4.22;;
66127;SDS011;52925;52.436;-1.952;2023-12-14T17:35:44;12.82;;;4.32;;
66127;SDS011;52925;52.436;-1.952;2023-12-14T17:37:09;17.30;;;4.10;;
66127;SDS011;52925;52.436;-1.952;2023-12-14T17:38:30;13.40;;;3.97;;
66127;SDS011;52925;52.436;-1.952;2023-12-14T17:39:52;15.45;;;4.43;;
66127;SDS011;52925;52.436;-1.952;2023-12-14T17:41:12;11.85;;;4.18;;
66127;SDS011;52925;52.436;-1.952;2023-12-14T17:42:44;13.73;;;4.20;;
66127;SDS011;52925;52.436;-1.952;2023-12-14T17:44:23;19.92;;;4.43;;
66127;SDS011;52925;52.436;-1.952;2023-12-14T17:46:25;12.50;;;4.03;;
66127;SDS011;52925;52.436;-1.952;2023-12-14T17:47:45;15.32;;;4.78;;
66127;SDS011;52925;52.436;-1.952;2023-12-14T17:52:10;13.90;;;4.38;;
66127;SDS011;52925;52.436;-1.952;2023-12-14T17:53:32;13.40;;;4.57;;
66127;SDS011;52925;52.436;-1.952;2023-12-14T17:54:54;13.38;;;4.00;;
66127;SDS011;52925;52.436;-1.952;2023-12-14T17:56:15;15.07;;;4.35;;
66127;SDS011;52925;52.436;-1.952;2023-12-14T17:57:36;16.40;;;4.82;;
66127;SDS011;52925;52.436;-1.952;2023-12-14T17:58:57;17.80;;;4.25;;
66127;SDS011;52925;52.436;-1.952;2023-12-14T18:00:18;19.25;;;4.50;;
66127;SDS011;52925;52.436;-1.952;2023-12-14T18:01:42;14.95;;;4.15;;
66127;SDS011;52925;52.436;-1.952;2023-12-14T18:03:16;18.75;;;4.85;;
66127;SDS011;52925;52.436;-1.952;2023-12-14T18:04:37;18.38;;;4.90;;
66127;SDS011;52925;52.436;-1.952;2023-12-14T18:06:10;14.85;;;4.50;;
66127;SDS011;52925;52.436;-1.952;2023-12-14T18:07:29;16.95;;;4.53;;
66127;SDS011;52925;52.436;-1.952;2023-12-14T18:08:54;17.05;;;4.88;;
66127;SDS011;52925;52.436;-1.952;2023-12-14T18:10:23;11.52;;;4.55;;
66127;SDS011;52925;52.436;-1.952;2023-12-14T18:11:45;14.85;;;5.20;;
66127;SDS011;52925;52.436;-1.952;2023-12-14T18:13:04;14.70;;;5.05;;
66127;SDS011;52925;52.436;-1.952;2023-12-14T18:14:26;13.05;;;4.63;;
66127;SDS011;52925;52.436;-1.952;2023-12-14T18:15:51;15.67;;;5.23;;
66127;SDS011;52925;52.436;-1.952;2023-12-14T18:17:12;17.85;;;5.47;;
66127;SDS011;52925;52.436;-1.952;2023-12-14T18:18:33;18.80;;;5.57;;
66127;SDS011;52925;52.436;-1.952;2023-12-14T18:19:54;16.13;;;5.07;;
66127;SDS011;52925;52.436;-1.952;2023-12-14T18:21:19;19.13;;;5.55;;
66127;SDS011;52925;52.436;-1.952;2023-12-14T18:22:45;18.15;;;5.63;;
66127;SDS011;52925;52.436;-1.952;2023-12-14T18:24:07;14.65;;;5.20;;
66127;SDS011;52925;52.436;-1.952;2023-12-14T18:25:30;22.60;;;5.90;;
66127;SDS011;52925;52.436;-1.952;2023-12-14T18:26:49;15.60;;;5.63;;
66127;SDS011;52925;52.436;-1.952;2023-12-14T18:28:10;20.02;;;6.07;;
66127;SDS011;52925;52.436;-1.952;2023-12-14T18:29:31;17.50;;;5.60;;
66127;SDS011;52925;52.436;-1.952;2023-12-14T18:30:52;17.02;;;5.72;;
66127;SDS011;52925;52.436;-1.952;2023-12-14T18:32:12;19.45;;;6.22;;
66127;SDS011;52925;52.436;-1.952;2023-12-14T18:33:32;20.58;;;6.30;;
66127;SDS011;52925;52.436;-1.952;2023-12-14T18:34:52;14.82;;;6.05;;
66127;SDS011;52925;52.436;-1.952;2023-12-14T18:36:15;14.98;;;5.63;;
66127;SDS011;52925;52.436;-1.952;2023-12-14T18:37:36;15.32;;;6.15;;
66127;SDS011;52925;52.436;-1.952;2023-12-14T18:38:56;18.30;;;6.85;;
66127;SDS011;52925;52.436;-1.952;2023-12-14T18:40:17;14.40;;;5.30;;
66127;SDS011;52925;52.436;-1.952;2023-12-14T18:41:42;16.88;;;6.13;;
66127;SDS011;52925;52.436;-1.952;2023-12-14T18:43:02;15.55;;;6.05;;
66127;SDS011;52925;52.436;-1.952;2023-12-14T18:44:23;14.80;;;5.95;;
66127;SDS011;52925;52.436;-1.952;2023-12-14T18:45:42;13.20;;;6.00;;
66127;SDS011;52925;52.436;-1.952;2023-12-14T18:47:04;17.50;;;6.32;;
66127;SDS011;52925;52.436;-1.952;2023-12-14T18:48:24;13.48;;;6.22;;
66127;SDS011;52925;52.436;-1.952;2023-12-14T18:49:45;16.38;;;6.40;;
66127;SDS011;52925;52.436;-1.952;2023-12-14T18:51:08;15.05;;;6.15;;
66127;SDS011;52925;52.436;-1.952;2023-12-14T18:52:28;17.27;;;6.40;;
66127;SDS011;52925;52.436;-1.952;2023-12-14T18:53:48;17.33;;;6.05;;
66127;SDS011;52925;52.436;-1.952;2023-12-14T18:55:09;15.65;;;6.15;;
66127;SDS011;52925;52.436;-1.952;2023-12-14T18:56:30;14.93;;;6.10;;
66127;SDS011;52925;52.436;-1.952;2023-12-14T18:57:53;18.02;;;6.30;;
66127;SDS011;52925;52.436;-1.952;2023-12-14T18:59:13;16.63;;;6.05;;
66127;SDS011;52925;52.436;-1.952;2023-12-14T19:00:34;14.43;;;5.60;;
66127;SDS011;52925;52.436;-1.952;2023-12-14T19:01:54;14.25;;;5.70;;
66127;SDS011;52925;52.436;-1.952;2023-12-14T19:03:15;18.40;;;6.13;;
66127;SDS011;52925;52.436;-1.952;2023-12-14T19:04:35;14.38;;;6.03;;
66127;SDS011;52925;52.436;-1.952;2023-12-14T19:05:55;14.40;;;5.28;;
66127;SDS011;52925;52.436;-1.952;2023-12-14T19:07:15;15.45;;;6.10;;
66127;SDS011;52925;52.436;-1.952;2023-12-14T19:08:38;17.38;;;6.50;;
66127;SDS011;52925;52.436;-1.952;2023-12-14T19:09:58;13.95;;;5.43;;
66127;SDS011;52925;52.436;-1.952;2023-12-14T19:11:19;14.98;;;6.30;;
66127;SDS011;52925;52.436;-1.952;2023-12-14T19:12:39;15.60;;;5.93;;
66127;SDS011;52925;52.436;-1.952;2023-12-14T19:14:02;20.15;;;6.15;;
66127;SDS011;52925;52.436;-1.952;2023-12-14T19:15:22;14.88;;;6.68;;
66127;SDS011;52925;52.436;-1.952;2023-12-14T19:16:43;14.32;;;5.85;;
66127;SDS011;52925;52.436;-1.952;2023-12-14T19:18:03;16.63;;;6.40;;
66127;SDS011;52925;52.436;-1.952;2023-12-14T19:19:24;14.02;;;5.25;;
66127;SDS011;52925;52.436;-1.952;2023-12-14T19:20:44;13.93;;;5.60;;
66127;SDS011;52925;52.436;-1.952;2023-12-14T19:22:05;15.32;;;5.45;;
66127;SDS011;52925;52.436;-1.952;2023-12-14T19:23:25;14.55;;;5.40;;
66127;SDS011;52925;52.436;-1.952;2023-12-14T19:24:46;16.20;;;5.60;;
66127;SDS011;52925;52.436;-1.952;2023-12-14T19:26:07;13.48;;;5.75;;
66127;SDS011;52925;52.436;-1.952;2023-12-14T19:27:36;15.18;;;5.47;;
66127;SDS011;52925;52.436;-1.952;2023-12-14T19:28:56;18.88;;;5.82;;
66127;SDS011;52925;52.436;-1.952;2023-12-14T19:30:18;17.90;;;5.90;;
66127;SDS011;52925;52.436;-1.952;2023-12-14T19:31:39;18.15;;;5.72;;
66127;SDS011;52925;52.436;-1.952;2023-12-14T19:33:00;21.30;;;5.97;;
66127;SDS011;52925;52.436;-1.952;2023-12-14T19:34:20;15.50;;;5.90;;
66127;SDS011;52925;52.436;-1.952;2023-12-14T19:35:40;15.52;;;6.18;;
66127;SDS011;52925;52.436;-1.952;2023-12-14T19:37:00;19.90;;;6.10;;
66127;SDS011;52925;52.436;-1.952;2023-12-14T19:38:21;14.45;;;5.57;;
66127;SDS011;52925;52.436;-1.952;2023-12-14T19:39:41;17.13;;;6.05;;
66127;SDS011;52925;52.436;-1.952;2023-12-14T19:41:01;15.32;;;5.30;;
66127;SDS011;52925;52.436;-1.952;2023-12-14T19:42:21;15.32;;;5.32;;
66127;SDS011;52925;52.436;-1.952;2023-12-14T19:43:42;12.90;;;5.55;;
66127;SDS011;52925;52.436;-1.952;2023-12-14T19:45:03;13.60;;;5.30;;
66127;SDS011;52925;52.436;-1.952;2023-12-14T19:46:26;18.17;;;4.90;;
66127;SDS011;52925;52.436;-1.952;2023-12-14T19:47:46;16.98;;;5.68;;
66127;SDS011;52925;52.436;-1.952;2023-12-14T19:49:07;12.63;;;4.68;;
66127;SDS011;52925;52.436;-1.952;2023-12-14T19:50:27;17.40;;;5.35;;
66127;SDS011;52925;52.436;-1.952;2023-12-14T19:51:48;14.85;;;5.80;;
